Airfield :







YOU CAN JOIN US ON...

 
LOGIN :

Register | Disclaimer

   EN    FR    IT 

 









Legend :    VFR   Marginal VFR   IFR   Intensive IFR   Very Intensive IFR
Visi :
Ceiling :
>= 8 km
>= 3000ft
5 to 8 km
1000 to 3000 ft
1500m to 5 km
500 to 1000 ft
800 to 1500m
200 to 500 ft
< 800m
< 200 ft
Symbols :   Thunderstorms  Fog  Heavy snow  Heavy precipitations  Wind > 20 kt







- Airport Elevation : 333 ft


KWVL - Waterville Robert Lafleur

CURRENT METAR :
  • 160156Z AUTO 32005KT 10SM -RA FEW035 SCT050 15/12 A3000 RMK AO2 SLP186 P0002 T01500122

EXPIRED METARs :
  • 160056Z AUTO 34004KT 10SM -RA BKN038 OVC046 15/13 A3000 RMK AO2 SLP183 P0002 T01500128
  • 152356Z AUTO 34004KT 10SM -RA FEW038 BKN049 OVC100 18/11 A2999 RMK AO2 RAB37 SLP180 P0000 60000 T01780106 10233 20178 53011

TAF N/A
No reported NOTAMs for that airfield.



MET'MAP, your aeronautical weather chart ! - Copyright ORBIFLY December 2007 - Disclaimer

ORBIFLY MET'MAP TEAM :

Programming & Development : Alexandra Zaïnal
Concept & Development : Baudouin d'Aumeries
Co-Development & Prog : Marc-Olivier Méhu
Technical & hardware support : Manuel Goepfert

Contact : metmap@orbifly.com




SOURCES & CREDITS :

   NOAA